Time;durP1;ratioP1;P1;durP2;ratioP2;P2;SDS_P1;SDS_P2;PMS_P1;PMS_P2;Temp;Humidity;BMP_temperature;BMP_pressure;BME280_temperature;BME280_humidity;BME280_pressure;Samples;Min_cycle;Max_cycle;Signal;HPM_P1;HPM_P2
2022/10/31 00:01:00;;;;;;;10.00;4.37;;;;;;;;;;4981044;28;20654;-62
2022/10/31 00:03:28;;;;;;;7.43;3.37;;;;;;;;;;4985312;28;20350;-63
2022/10/31 00:05:55;;;;;;;5.80;3.20;;;;;;;;;;5003974;28;20587;-64
2022/10/31 00:08:22;;;;;;;6.60;3.30;;;;;;;;;;4981162;28;20289;-64
2022/10/31 00:10:49;;;;;;;9.60;3.90;;;;;;;;;;4985964;28;20254;-65
2022/10/31 00:13:17;;;;;;;7.30;3.53;;;;;;;;;;4984636;28;20295;-64
2022/10/31 00:15:44;;;;;;;8.83;3.53;;;;;;;;;;4986356;28;20211;-64
2022/10/31 00:18:12;;;;;;;7.67;3.87;;;;;;;;;;4981718;28;20239;-63
2022/10/31 00:20:40;;;;;;;8.10;4.70;;;;;;;;;;4977804;28;20272;-63
2022/10/31 00:23:09;;;;;;;9.10;4.87;;;;;;;;;;4998225;28;20200;-63
2022/10/31 00:25:37;;;;;;;8.77;4.40;;;;;;;;;;4988464;28;20290;-64
2022/10/31 00:28:06;;;;;;;9.23;4.33;;;;;;;;;;4972042;28;20299;-63
2022/10/31 00:30:33;;;;;;;8.00;4.33;;;;;;;;;;4986277;28;20231;-64
2022/10/31 00:33:01;;;;;;;7.83;4.03;;;;;;;;;;4981109;28;20243;-64
2022/10/31 00:35:28;;;;;;;6.10;4.37;;;;;;;;;;4987927;28;20227;-64
2022/10/31 00:37:56;;;;;;;12.67;4.80;;;;;;;;;;4975930;28;20231;-64
2022/10/31 00:40:23;;;;;;;10.83;3.90;;;;;;;;;;4996616;28;20242;-64
2022/10/31 00:42:51;;;;;;;7.00;4.10;;;;;;;;;;4985622;28;20346;-63
2022/10/31 00:45:19;;;;;;;6.47;3.73;;;;;;;;;;4984556;28;20224;-63
2022/10/31 00:47:46;;;;;;;6.63;3.70;;;;;;;;;;4981394;28;20682;-63
2022/10/31 00:50:13;;;;;;;7.33;3.20;;;;;;;;;;4982798;28;20314;-63
2022/10/31 00:52:40;;;;;;;9.37;4.30;;;;;;;;;;4967461;28;20339;-64
2022/10/31 00:55:08;;;;;;;6.60;3.23;;;;;;;;;;4967651;28;20906;-64
2022/10/31 00:57:35;;;;;;;4.30;3.00;;;;;;;;;;4969020;28;20225;-64
2022/10/31 01:00:03;;;;;;;6.33;3.50;;;;;;;;;;4970533;28;20315;-63
2022/10/31 01:02:31;;;;;;;6.07;3.30;;;;;;;;;;4974165;28;20242;-64
2022/10/31 01:04:58;;;;;;;8.87;3.83;;;;;;;;;;4973115;28;20212;-63
2022/10/31 01:07:25;;;;;;;5.60;3.23;;;;;;;;;;4969621;28;21352;-64
2022/10/31 01:09:53;;;;;;;6.27;3.50;;;;;;;;;;4966540;28;20846;-64
2022/10/31 01:12:21;;;;;;;8.20;3.30;;;;;;;;;;4971743;28;20221;-64
2022/10/31 01:14:48;;;;;;;6.90;3.17;;;;;;;;;;4974726;28;20334;-64
2022/10/31 01:17:16;;;;;;;5.70;3.53;;;;;;;;;;4966882;28;20203;-63
2022/10/31 01:19:43;;;;;;;4.60;3.30;;;;;;;;;;4971624;28;20302;-64
2022/10/31 01:22:10;;;;;;;7.77;3.00;;;;;;;;;;4980461;28;20676;-64
2022/10/31 01:24:38;;;;;;;6.67;3.17;;;;;;;;;;4972934;28;20215;-63
2022/10/31 01:27:05;;;;;;;5.73;3.20;;;;;;;;;;4975872;28;20214;-63
2022/10/31 01:29:33;;;;;;;5.93;3.27;;;;;;;;;;4976845;28;20227;-65
2022/10/31 01:32:00;;;;;;;9.10;4.07;;;;;;;;;;4978299;28;20646;-64
2022/10/31 01:34:27;;;;;;;8.83;3.70;;;;;;;;;;4974903;28;20379;-64
2022/10/31 01:36:55;;;;;;;5.73;3.47;;;;;;;;;;4975112;28;20630;-63
2022/10/31 01:39:22;;;;;;;7.10;4.10;;;;;;;;;;4971693;28;20227;-63
2022/10/31 01:41:51;;;;;;;7.53;4.30;;;;;;;;;;4985010;28;20214;-64
2022/10/31 01:44:19;;;;;;;7.43;4.43;;;;;;;;;;4971341;28;20234;-64
2022/10/31 01:46:55;;;;;;;12.77;4.97;;;;;;;;;;4971045;28;20216;-64
2022/10/31 01:49:41;;;;;;;6.27;4.63;;;;;;;;;;4964981;28;20238;-62
2022/10/31 01:52:17;;;;;;;9.93;5.73;;;;;;;;;;4960914;28;20204;-63
2022/10/31 01:54:50;;;;;;;10.87;6.30;;;;;;;;;;4969658;28;20689;-64
2022/10/31 01:57:18;;;;;;;8.63;6.77;;;;;;;;;;4978956;28;20302;-62
2022/10/31 01:59:48;;;;;;;9.67;7.10;;;;;;;;;;4972488;28;20378;-63
2022/10/31 02:02:17;;;;;;;14.43;7.27;;;;;;;;;;4971301;28;20628;-61
2022/10/31 02:04:45;;;;;;;10.57;6.37;;;;;;;;;;4975658;28;20277;-64
2022/10/31 02:07:18;;;;;;;10.40;5.07;;;;;;;;;;4970121;28;20309;-64
2022/10/31 02:09:46;;;;;;;12.27;9.13;;;;;;;;;;4973024;28;20318;-64
2022/10/31 02:12:14;;;;;;;14.93;9.87;;;;;;;;;;4986557;28;20729;-64
2022/10/31 02:14:42;;;;;;;14.60;9.00;;;;;;;;;;4987565;28;20234;-64
2022/10/31 02:17:09;;;;;;;12.17;8.63;;;;;;;;;;4977402;28;20647;-65
2022/10/31 02:19:36;;;;;;;11.77;6.67;;;;;;;;;;4975272;28;20322;-63
2022/10/31 02:22:13;;;;;;;9.90;6.53;;;;;;;;;;4974588;28;20267;-63
2022/10/31 02:25:07;;;;;;;7.37;6.00;;;;;;;;;;4974891;28;20345;-65
2022/10/31 02:27:35;;;;;;;11.23;5.20;;;;;;;;;;4973370;28;20342;-61
2022/10/31 02:30:02;;;;;;;7.67;5.00;;;;;;;;;;4989372;28;20235;-63
2022/10/31 02:32:29;;;;;;;10.07;5.27;;;;;;;;;;4974141;28;20306;-64
2022/10/31 02:35:24;;;;;;;9.23;5.47;;;;;;;;;;4969255;28;20223;-63
2022/10/31 02:38:11;;;;;;;9.23;5.27;;;;;;;;;;4977761;28;20232;-64
2022/10/31 02:40:45;;;;;;;7.83;4.30;;;;;;;;;;4977381;28;20219;-64
2022/10/31 02:43:27;;;;;;;7.93;4.43;;;;;;;;;;4997332;28;20296;-64
2022/10/31 02:46:01;;;;;;;9.20;5.03;;;;;;;;;;4986820;28;20223;-62
2022/10/31 02:48:29;;;;;;;7.47;4.63;;;;;;;;;;4977936;28;20314;-61
2022/10/31 02:50:58;;;;;;;9.27;4.80;;;;;;;;;;4992889;28;20232;-63
2022/10/31 02:53:26;;;;;;;7.17;4.43;;;;;;;;;;4971123;28;20208;-64
2022/10/31 02:55:59;;;;;;;6.80;4.50;;;;;;;;;;4975307;28;20264;-65
2022/10/31 02:58:29;;;;;;;8.37;4.87;;;;;;;;;;4970746;28;20299;-63
2022/10/31 03:01:09;;;;;;;9.97;4.77;;;;;;;;;;4976676;28;20478;-63
2022/10/31 03:03:39;;;;;;;6.23;4.53;;;;;;;;;;4974857;28;20622;-64
2022/10/31 03:06:07;;;;;;;8.97;4.70;;;;;;;;;;4970143;28;20311;-64
2022/10/31 03:08:37;;;;;;;6.43;4.30;;;;;;;;;;4970809;28;20214;-63
2022/10/31 03:11:06;;;;;;;8.70;4.90;;;;;;;;;;4966113;28;20222;-64
2022/10/31 03:13:34;;;;;;;6.77;4.30;;;;;;;;;;4970071;28;20200;-64
2022/10/31 03:16:26;;;;;;;8.13;4.67;;;;;;;;;;4976569;28;20231;-64
2022/10/31 03:18:58;;;;;;;8.80;6.13;;;;;;;;;;4974499;28;20219;-64
2022/10/31 03:21:45;;;;;;;13.83;8.60;;;;;;;;;;4974535;28;21147;-64
2022/10/31 03:24:14;;;;;;;8.40;5.90;;;;;;;;;;4966471;28;20207;-63
2022/10/31 03:26:43;;;;;;;10.53;6.50;;;;;;;;;;4972980;28;20304;-64
2022/10/31 03:29:13;;;;;;;9.13;6.20;;;;;;;;;;4964647;28;20227;-64
2022/10/31 03:31:44;;;;;;;8.70;5.60;;;;;;;;;;4968589;28;20793;-64
2022/10/31 03:34:13;;;;;;;8.43;5.50;;;;;;;;;;4973785;28;20208;-61
2022/10/31 03:36:40;;;;;;;7.90;5.63;;;;;;;;;;4970534;28;20749;-64
2022/10/31 03:39:10;;;;;;;8.97;5.93;;;;;;;;;;4970297;28;20227;-64
2022/10/31 03:41:41;;;;;;;10.33;5.53;;;;;;;;;;4966781;28;20239;-61
2022/10/31 03:44:11;;;;;;;7.73;5.43;;;;;;;;;;4965395;28;20595;-64
2022/10/31 03:46:39;;;;;;;8.90;5.20;;;;;;;;;;4964928;28;20219;-63
2022/10/31 03:49:06;;;;;;;8.67;5.37;;;;;;;;;;4978200;28;20303;-63
2022/10/31 03:51:40;;;;;;;6.33;4.40;;;;;;;;;;4968469;28;20207;-64
2022/10/31 03:54:11;;;;;;;10.70;5.47;;;;;;;;;;4969956;28;20676;-63
2022/10/31 03:56:42;;;;;;;6.00;4.40;;;;;;;;;;4973109;28;20234;-63
2022/10/31 03:59:25;;;;;;;6.00;4.77;;;;;;;;;;4976165;28;20255;-64
2022/10/31 04:01:54;;;;;;;8.80;5.17;;;;;;;;;;4976763;28;20207;-63
2022/10/31 04:04:21;;;;;;;8.47;4.80;;;;;;;;;;4999838;28;20196;-63
2022/10/31 04:06:49;;;;;;;8.50;4.70;;;;;;;;;;4971980;28;20208;-63
2022/10/31 04:09:18;;;;;;;7.70;4.97;;;;;;;;;;4977032;28;20310;-63
2022/10/31 04:11:50;;;;;;;8.23;4.67;;;;;;;;;;4973298;28;20211;-64
2022/10/31 04:14:18;;;;;;;6.80;4.90;;;;;;;;;;4973979;28;20770;-64
2022/10/31 04:16:45;;;;;;;6.67;4.63;;;;;;;;;;4965331;28;20605;-64
2022/10/31 04:19:13;;;;;;;9.83;5.57;;;;;;;;;;4967285;28;20487;-65
2022/10/31 04:21:43;;;;;;;7.80;4.50;;;;;;;;;;4986233;28;20235;-64
2022/10/31 04:24:10;;;;;;;6.73;5.00;;;;;;;;;;4966809;28;20214;-64
2022/10/31 04:26:38;;;;;;;8.90;4.60;;;;;;;;;;4971612;28;20219;-63
2022/10/31 04:29:05;;;;;;;9.93;4.77;;;;;;;;;;4976239;28;20227;-62
2022/10/31 04:31:32;;;;;;;7.73;4.33;;;;;;;;;;4970863;28;20293;-64
2022/10/31 04:34:00;;;;;;;7.00;3.90;;;;;;;;;;4978845;28;20216;-64
2022/10/31 04:36:27;;;;;;;8.63;4.17;;;;;;;;;;4965986;28;20440;-62
2022/10/31 04:38:54;;;;;;;8.90;5.23;;;;;;;;;;4991025;28;20245;-64
2022/10/31 04:41:22;;;;;;;6.57;5.00;;;;;;;;;;4972228;28;20293;-64
2022/10/31 04:43:49;;;;;;;6.97;4.73;;;;;;;;;;4988086;28;20402;-62
2022/10/31 04:46:16;;;;;;;7.07;4.60;;;;;;;;;;4984560;28;20290;-62
2022/10/31 04:48:44;;;;;;;7.40;4.57;;;;;;;;;;4980443;28;20334;-64
2022/10/31 04:51:11;;;;;;;7.13;4.60;;;;;;;;;;4986232;28;20593;-64
2022/10/31 04:53:38;;;;;;;9.47;4.60;;;;;;;;;;4957894;28;20243;-64
2022/10/31 04:56:06;;;;;;;10.63;4.63;;;;;;;;;;4959666;28;20315;-64
2022/10/31 04:58:34;;;;;;;7.03;5.00;;;;;;;;;;4964089;28;20209;-64
2022/10/31 05:01:01;;;;;;;8.97;4.50;;;;;;;;;;4965348;28;20208;-63
2022/10/31 05:03:28;;;;;;;10.60;5.47;;;;;;;;;;4956673;28;20295;-64
2022/10/31 05:05:56;;;;;;;9.40;4.73;;;;;;;;;;4970809;28;20294;-64
2022/10/31 05:08:23;;;;;;;9.80;4.97;;;;;;;;;;4962174;28;22193;-65
2022/10/31 05:10:51;;;;;;;9.90;4.90;;;;;;;;;;4958333;28;20705;-64
2022/10/31 05:13:19;;;;;;;9.27;6.10;;;;;;;;;;4958599;28;20204;-64
2022/10/31 05:15:46;;;;;;;11.93;6.37;;;;;;;;;;4972508;28;20351;-65
2022/10/31 05:18:13;;;;;;;10.07;5.83;;;;;;;;;;4973370;28;20666;-64
2022/10/31 05:20:43;;;;;;;10.10;5.40;;;;;;;;;;4972588;28;20219;-63
2022/10/31 05:23:12;;;;;;;10.13;6.57;;;;;;;;;;4976351;28;20307;-63
2022/10/31 05:25:40;;;;;;;12.00;5.80;;;;;;;;;;4971532;28;20752;-64
2022/10/31 05:28:07;;;;;;;10.70;6.50;;;;;;;;;;4970841;28;20330;-64
2022/10/31 05:30:35;;;;;;;10.23;7.60;;;;;;;;;;4961959;28;20242;-63
2022/10/31 05:33:02;;;;;;;13.67;7.80;;;;;;;;;;4990398;28;20358;-64
2022/10/31 05:35:31;;;;;;;13.83;8.17;;;;;;;;;;4973018;28;20224;-64
2022/10/31 05:37:59;;;;;;;7.57;6.27;;;;;;;;;;4969964;28;20895;-64
2022/10/31 05:40:27;;;;;;;7.67;5.80;;;;;;;;;;4972588;28;20361;-64
2022/10/31 05:42:55;;;;;;;13.33;7.40;;;;;;;;;;4989142;28;20205;-64
2022/10/31 05:45:23;;;;;;;13.03;8.00;;;;;;;;;;4987007;28;20266;-64
2022/10/31 05:47:52;;;;;;;19.07;12.97;;;;;;;;;;4974224;28;20208;-64
2022/10/31 05:50:20;;;;;;;28.27;19.37;;;;;;;;;;4970779;28;20226;-63
2022/10/31 05:52:47;;;;;;;28.73;22.20;;;;;;;;;;4971416;28;20346;-64
2022/10/31 05:55:15;;;;;;;26.43;17.63;;;;;;;;;;4974143;28;20231;-63
2022/10/31 05:57:42;;;;;;;19.67;13.30;;;;;;;;;;4999781;28;21982;-64
2022/10/31 06:00:10;;;;;;;21.50;12.80;;;;;;;;;;4974741;28;20220;-64
2022/10/31 06:02:37;;;;;;;21.03;15.37;;;;;;;;;;4982050;28;20235;-63
2022/10/31 06:05:04;;;;;;;23.93;16.17;;;;;;;;;;4999360;28;20239;-63
2022/10/31 06:07:33;;;;;;;16.93;12.37;;;;;;;;;;4983443;28;20278;-64
2022/10/31 06:10:00;;;;;;;14.10;9.97;;;;;;;;;;4984780;28;20278;-64
2022/10/31 06:12:28;;;;;;;11.33;7.27;;;;;;;;;;4977817;28;20250;-63
2022/10/31 06:14:56;;;;;;;8.27;5.30;;;;;;;;;;4987178;28;20286;-64
2022/10/31 06:17:24;;;;;;;9.40;5.37;;;;;;;;;;4978630;28;20424;-64
2022/10/31 06:19:54;;;;;;;6.37;4.20;;;;;;;;;;4977158;28;23368;-64
2022/10/31 06:22:22;;;;;;;7.83;3.63;;;;;;;;;;4978031;28;20346;-64
2022/10/31 06:24:50;;;;;;;8.87;4.20;;;;;;;;;;4982115;28;20342;-64
2022/10/31 06:27:17;;;;;;;7.90;4.23;;;;;;;;;;4978954;28;20215;-64
2022/10/31 06:29:47;;;;;;;8.27;4.77;;;;;;;;;;4976075;28;20725;-64
2022/10/31 06:32:15;;;;;;;11.03;5.53;;;;;;;;;;4979028;28;20280;-64
2022/10/31 06:34:43;;;;;;;8.17;4.83;;;;;;;;;;4981357;28;20215;-63
2022/10/31 06:37:11;;;;;;;9.33;5.47;;;;;;;;;;4981595;28;20246;-64
2022/10/31 06:39:38;;;;;;;9.43;4.77;;;;;;;;;;4981209;28;20311;-64
2022/10/31 06:42:06;;;;;;;7.57;5.30;;;;;;;;;;4982901;28;20211;-64
2022/10/31 06:44:35;;;;;;;9.23;5.07;;;;;;;;;;4982293;28;20277;-63
2022/10/31 06:47:02;;;;;;;9.77;5.17;;;;;;;;;;4983678;28;20287;-64
2022/10/31 06:49:30;;;;;;;10.53;4.73;;;;;;;;;;4979174;28;20791;-64
2022/10/31 06:51:57;;;;;;;9.27;5.60;;;;;;;;;;4983476;28;20701;-64
2022/10/31 06:54:24;;;;;;;8.03;6.03;;;;;;;;;;4979097;28;20726;-63
2022/10/31 06:56:52;;;;;;;8.90;6.87;;;;;;;;;;4974663;28;20220;-64
2022/10/31 06:59:19;;;;;;;9.17;7.60;;;;;;;;;;4982890;28;20471;-63
2022/10/31 07:01:46;;;;;;;12.53;9.60;;;;;;;;;;4984263;28;20203;-64
2022/10/31 07:04:14;;;;;;;14.27;11.60;;;;;;;;;;4979475;28;20223;-64
2022/10/31 07:06:41;;;;;;;18.63;12.17;;;;;;;;;;4978321;28;20318;-64
2022/10/31 07:09:15;;;;;;;12.17;9.60;;;;;;;;;;4997734;28;20317;-64
2022/10/31 07:11:42;;;;;;;15.20;8.27;;;;;;;;;;4978403;28;20541;-64
2022/10/31 07:14:10;;;;;;;13.70;8.17;;;;;;;;;;4979276;28;20306;-64
2022/10/31 07:16:37;;;;;;;10.70;7.00;;;;;;;;;;4978414;28;21631;-64
2022/10/31 07:19:05;;;;;;;10.00;7.00;;;;;;;;;;4982761;28;20579;-63
2022/10/31 07:21:32;;;;;;;10.57;6.83;;;;;;;;;;4982380;28;20662;-64
2022/10/31 07:24:00;;;;;;;12.27;5.77;;;;;;;;;;4981101;28;20592;-64
2022/10/31 07:26:27;;;;;;;8.93;4.40;;;;;;;;;;4979754;28;20257;-64
2022/10/31 07:28:55;;;;;;;8.23;4.83;;;;;;;;;;4977236;28;20235;-64
2022/10/31 07:31:22;;;;;;;7.63;5.10;;;;;;;;;;4979992;28;20793;-63
2022/10/31 07:33:49;;;;;;;6.87;4.47;;;;;;;;;;4987381;28;20207;-63
2022/10/31 07:36:17;;;;;;;8.10;4.33;;;;;;;;;;4984417;28;20236;-64
2022/10/31 07:38:44;;;;;;;8.10;4.47;;;;;;;;;;4984273;28;20231;-64
2022/10/31 07:41:11;;;;;;;7.23;4.77;;;;;;;;;;4985258;28;20203;-64
2022/10/31 07:43:39;;;;;;;11.63;5.17;;;;;;;;;;4975141;28;20744;-64
2022/10/31 07:46:06;;;;;;;7.63;6.20;;;;;;;;;;4977198;28;20226;-64
2022/10/31 07:48:36;;;;;;;13.93;6.50;;;;;;;;;;4974581;28;20290;-65
2022/10/31 07:51:04;;;;;;;12.33;5.87;;;;;;;;;;4976458;28;20239;-63
2022/10/31 07:53:33;;;;;;;10.97;5.93;;;;;;;;;;4997340;28;20213;-64
2022/10/31 07:56:00;;;;;;;9.63;5.53;;;;;;;;;;4969653;28;20714;-64
2022/10/31 07:58:27;;;;;;;8.20;5.13;;;;;;;;;;4970162;28;20270;-64
2022/10/31 08:00:55;;;;;;;7.57;5.50;;;;;;;;;;4988305;28;20237;-64
2022/10/31 08:03:22;;;;;;;8.37;5.63;;;;;;;;;;4987145;28;20208;-64
2022/10/31 08:05:50;;;;;;;7.43;5.13;;;;;;;;;;4972421;28;20238;-65
2022/10/31 08:08:17;;;;;;;11.50;5.20;;;;;;;;;;4974971;28;20566;-62
2022/10/31 08:10:44;;;;;;;6.37;4.87;;;;;;;;;;4952355;28;20235;-63
2022/10/31 08:13:12;;;;;;;12.13;5.33;;;;;;;;;;4957394;28;20243;-62
2022/10/31 08:15:41;;;;;;;11.53;5.07;;;;;;;;;;4956302;28;20244;-63
2022/10/31 08:18:13;;;;;;;6.77;4.20;;;;;;;;;;4954433;28;20288;-62
2022/10/31 08:20:44;;;;;;;8.77;4.60;;;;;;;;;;4962581;28;20219;-63
2022/10/31 08:23:12;;;;;;;8.23;4.23;;;;;;;;;;4962143;28;20223;-62
2022/10/31 08:25:40;;;;;;;7.80;3.33;;;;;;;;;;4974509;28;20204;-64
2022/10/31 08:28:08;;;;;;;7.10;3.80;;;;;;;;;;4971707;28;20204;-65
2022/10/31 08:30:36;;;;;;;5.73;3.40;;;;;;;;;;4986083;28;20227;-63
2022/10/31 08:33:15;;;;;;;6.63;3.67;;;;;;;;;;5000859;28;20687;-64
2022/10/31 08:35:42;;;;;;;7.67;3.73;;;;;;;;;;4988610;28;20595;-64
2022/10/31 08:38:11;;;;;;;6.63;3.60;;;;;;;;;;4986953;28;20204;-63
2022/10/31 08:40:38;;;;;;;8.93;4.17;;;;;;;;;;4972970;28;20584;-62
2022/10/31 08:43:07;;;;;;;6.23;3.90;;;;;;;;;;4980933;28;20342;-62
2022/10/31 08:45:35;;;;;;;4.83;3.40;;;;;;;;;;4959334;28;20207;-62
2022/10/31 08:48:04;;;;;;;4.60;3.37;;;;;;;;;;4973730;28;20208;-63
2022/10/31 08:50:32;;;;;;;7.23;3.13;;;;;;;;;;4959343;28;20231;-61
2022/10/31 08:53:00;;;;;;;5.97;3.60;;;;;;;;;;4967081;28;20239;-62
2022/10/31 08:55:35;;;;;;;6.32;3.38;;;;;;;;;;4967152;28;21472;-64
2022/10/31 08:58:04;;;;;;;8.35;3.40;;;;;;;;;;4961603;28;20712;-62
2022/10/31 09:00:32;;;;;;;7.47;3.80;;;;;;;;;;4962493;28;20251;-63
2022/10/31 09:03:01;;;;;;;7.53;3.70;;;;;;;;;;4970350;28;20207;-63
2022/10/31 09:05:28;;;;;;;6.78;3.47;;;;;;;;;;4961060;28;20319;-64
2022/10/31 09:07:57;;;;;;;5.70;3.75;;;;;;;;;;4958286;28;20210;-62
2022/10/31 09:10:26;;;;;;;5.25;3.60;;;;;;;;;;4957653;28;20232;-63
2022/10/31 09:13:00;;;;;;;4.60;3.00;;;;;;;;;;4968322;28;20346;-61
2022/10/31 09:15:28;;;;;;;4.68;3.13;;;;;;;;;;4979502;28;20334;-61
2022/10/31 09:17:56;;;;;;;9.35;3.78;;;;;;;;;;4957489;28;20239;-63
2022/10/31 09:20:24;;;;;;;8.32;3.17;;;;;;;;;;4962261;28;21873;-63
2022/10/31 09:23:01;;;;;;;7.50;3.90;;;;;;;;;;4972302;28;20218;-63
2022/10/31 09:25:31;;;;;;;6.97;3.40;;;;;;;;;;4979657;28;20227;-64
2022/10/31 09:27:59;;;;;;;7.93;3.78;;;;;;;;;;4971329;28;20310;-63
2022/10/31 09:30:28;;;;;;;6.72;3.67;;;;;;;;;;4978490;28;20231;-63
2022/10/31 09:33:00;;;;;;;5.30;3.38;;;;;;;;;;4982305;28;20354;-63
2022/10/31 09:35:27;;;;;;;5.88;3.70;;;;;;;;;;4985396;28;20217;-61
2022/10/31 09:37:59;;;;;;;8.00;3.70;;;;;;;;;;4975204;28;20326;-63
2022/10/31 09:40:47;;;;;;;10.77;3.92;;;;;;;;;;4985688;28;20689;-63
2022/10/31 09:43:20;;;;;;;7.82;3.83;;;;;;;;;;4976893;28;20334;-63
2022/10/31 09:45:52;;;;;;;6.15;3.78;;;;;;;;;;4996074;28;20219;-63
2022/10/31 09:48:27;;;;;;;7.93;3.33;;;;;;;;;;4981476;28;20207;-63
2022/10/31 09:51:00;;;;;;;9.00;4.35;;;;;;;;;;4983471;28;20317;-63
2022/10/31 09:53:28;;;;;;;7.32;3.72;;;;;;;;;;4981982;28;20215;-63
2022/10/31 09:55:56;;;;;;;18.58;6.60;;;;;;;;;;4977635;28;20227;-64
2022/10/31 09:58:28;;;;;;;15.13;5.43;;;;;;;;;;4986149;28;20711;-63
2022/10/31 10:00:58;;;;;;;7.70;3.63;;;;;;;;;;4982709;28;20639;-64
2022/10/31 10:03:44;;;;;;;10.32;4.50;;;;;;;;;;4975114;28;20215;-63
2022/10/31 10:06:17;;;;;;;9.35;4.18;;;;;;;;;;5002468;28;20674;-63
2022/10/31 10:08:45;;;;;;;8.25;4.40;;;;;;;;;;5008759;28;20241;-63
2022/10/31 10:11:20;;;;;;;10.65;5.05;;;;;;;;;;4985851;28;20211;-63
2022/10/31 10:14:07;;;;;;;9.40;4.68;;;;;;;;;;4986912;28;20215;-63
2022/10/31 10:16:59;;;;;;;6.40;4.05;;;;;;;;;;5007116;28;20227;-63
2022/10/31 10:19:29;;;;;;;9.55;4.20;;;;;;;;;;5005636;28;20259;-63
2022/10/31 10:22:02;;;;;;;10.00;5.18;;;;;;;;;;5001995;28;20626;-63
2022/10/31 10:24:50;;;;;;;8.55;4.88;;;;;;;;;;4987869;28;20291;-63
2022/10/31 10:27:21;;;;;;;13.13;4.88;;;;;;;;;;4979296;28;20209;-63
2022/10/31 10:29:59;;;;;;;9.68;4.53;;;;;;;;;;4976321;28;20262;-63
2022/10/31 10:32:30;;;;;;;12.30;5.22;;;;;;;;;;4978419;28;20248;-62
2022/10/31 10:35:08;;;;;;;9.70;5.00;;;;;;;;;;4996029;28;20927;-63
2022/10/31 10:37:39;;;;;;;12.75;4.60;;;;;;;;;;4984521;28;20223;-62
2022/10/31 10:40:13;;;;;;;9.48;4.85;;;;;;;;;;4981694;28;20317;-64
2022/10/31 10:48:21;;;;;;;7.15;5.20;;;;;;;;;;4996500;28;20819;-63
2022/10/31 10:50:49;;;;;;;20.98;6.43;;;;;;;;;;4980997;28;20230;-63
2022/10/31 10:53:31;;;;;;;12.98;5.78;;;;;;;;;;4973795;28;20216;-64
2022/10/31 10:56:02;;;;;;;12.60;5.95;;;;;;;;;;4972201;28;20211;-64
2022/10/31 10:58:29;;;;;;;10.80;5.53;;;;;;;;;;4978533;28;20220;-63
2022/10/31 11:00:56;;;;;;;12.65;5.15;;;;;;;;;;4984620;28;21212;-64
2022/10/31 11:03:25;;;;;;;9.07;4.70;;;;;;;;;;4983365;28;20203;-64
2022/10/31 11:05:54;;;;;;;17.52;4.55;;;;;;;;;;4982918;28;20321;-63
2022/10/31 11:08:32;;;;;;;11.57;4.57;;;;;;;;;;4983120;28;20208;-64
2022/10/31 11:11:05;;;;;;;7.25;3.67;;;;;;;;;;4982998;28;20776;-63
2022/10/31 11:13:33;;;;;;;9.43;3.50;;;;;;;;;;4984605;28;20590;-64
2022/10/31 11:16:03;;;;;;;8.90;3.33;;;;;;;;;;4979177;28;20683;-63
2022/10/31 11:18:33;;;;;;;6.15;2.88;;;;;;;;;;4996397;28;20219;-62
2022/10/31 11:21:02;;;;;;;7.72;3.22;;;;;;;;;;4981111;28;20262;-64
2022/10/31 11:23:29;;;;;;;7.53;3.20;;;;;;;;;;4983794;28;20565;-65
2022/10/31 11:26:01;;;;;;;9.88;2.97;;;;;;;;;;4997970;28;20204;-63
2022/10/31 11:28:29;;;;;;;12.25;3.15;;;;;;;;;;4980626;28;20224;-64
2022/10/31 11:31:01;;;;;;;8.20;3.22;;;;;;;;;;4982580;28;20263;-64
2022/10/31 11:33:33;;;;;;;5.70;2.47;;;;;;;;;;4989517;28;20302;-63
2022/10/31 11:36:01;;;;;;;7.00;2.83;;;;;;;;;;4981109;28;20319;-63
2022/10/31 11:38:35;;;;;;;9.05;2.58;;;;;;;;;;4975029;28;20322;-63
2022/10/31 11:41:09;;;;;;;10.32;3.03;;;;;;;;;;4977847;28;20234;-64
2022/10/31 11:43:38;;;;;;;7.65;2.65;;;;;;;;;;4983197;28;20199;-63
2022/10/31 11:46:10;;;;;;;6.57;2.83;;;;;;;;;;4994038;28;20274;-63
2022/10/31 11:48:37;;;;;;;8.05;3.15;;;;;;;;;;4965384;28;20203;-63
2022/10/31 11:51:05;;;;;;;8.25;2.70;;;;;;;;;;4961834;28;20211;-64
2022/10/31 11:53:34;;;;;;;5.82;2.70;;;;;;;;;;4961828;28;20224;-63
2022/10/31 11:56:04;;;;;;;6.00;3.08;;;;;;;;;;4966276;28;20257;-65
2022/10/31 11:58:31;;;;;;;6.53;2.80;;;;;;;;;;4957232;28;20255;-64
2022/10/31 12:00:59;;;;;;;9.60;3.03;;;;;;;;;;4960931;28;20228;-64
2022/10/31 12:03:30;;;;;;;6.20;2.88;;;;;;;;;;4959322;28;20238;-64
2022/10/31 12:06:11;;;;;;;4.57;2.80;;;;;;;;;;4994401;28;20291;-64
2022/10/31 12:08:39;;;;;;;7.22;2.90;;;;;;;;;;4979899;28;20227;-63
2022/10/31 12:11:16;;;;;;;7.80;2.67;;;;;;;;;;5000228;28;20223;-64
2022/10/31 12:13:56;;;;;;;6.47;3.00;;;;;;;;;;4984964;28;20270;-63
2022/10/31 12:16:42;;;;;;;6.97;3.03;;;;;;;;;;4975473;28;20207;-62
2022/10/31 12:19:16;;;;;;;5.05;3.20;;;;;;;;;;4993606;28;20219;-62
2022/10/31 12:21:58;;;;;;;7.00;3.33;;;;;;;;;;4970924;28;20219;-64
2022/10/31 12:24:28;;;;;;;8.27;3.60;;;;;;;;;;4978916;28;20207;-63
2022/10/31 12:27:20;;;;;;;7.80;3.83;;;;;;;;;;4965121;28;20207;-63
2022/10/31 12:29:50;;;;;;;7.13;3.47;;;;;;;;;;4976539;28;20239;-65
2022/10/31 12:32:37;;;;;;;9.93;3.90;;;;;;;;;;4980277;28;20211;-63
2022/10/31 12:35:19;;;;;;;7.35;3.45;;;;;;;;;;4966173;28;20983;-64
2022/10/31 12:38:05;;;;;;;13.07;3.72;;;;;;;;;;4957745;28;20376;-64
2022/10/31 12:40:51;;;;;;;7.78;3.47;;;;;;;;;;4970446;28;20318;-64
2022/10/31 12:43:31;;;;;;;6.93;2.88;;;;;;;;;;4958778;28;20207;-63
2022/10/31 12:46:00;;;;;;;8.52;3.22;;;;;;;;;;4965296;28;20269;-62
2022/10/31 12:48:36;;;;;;;8.10;3.30;;;;;;;;;;4955022;28;20335;-62
2022/10/31 12:51:23;;;;;;;7.75;2.90;;;;;;;;;;4986015;28;20258;-64
2022/10/31 12:54:06;;;;;;;6.65;3.30;;;;;;;;;;4960833;28;20678;-63
2022/10/31 12:56:33;;;;;;;9.30;3.35;;;;;;;;;;4982517;28;20208;-63
2022/10/31 12:59:04;;;;;;;10.20;3.08;;;;;;;;;;4955493;28;20232;-63
2022/10/31 13:01:36;;;;;;;8.93;3.13;;;;;;;;;;4968559;28;20313;-64
2022/10/31 13:04:13;;;;;;;9.85;3.30;;;;;;;;;;4970199;28;20219;-64
2022/10/31 13:06:43;;;;;;;9.30;3.50;;;;;;;;;;4963088;28;20651;-64
2022/10/31 13:09:14;;;;;;;8.98;3.55;;;;;;;;;;4977053;28;20236;-64
2022/10/31 13:11:44;;;;;;;6.05;3.13;;;;;;;;;;4978006;28;20200;-63
2022/10/31 13:14:13;;;;;;;8.18;3.03;;;;;;;;;;4977113;28;21622;-63
2022/10/31 13:16:45;;;;;;;8.52;3.17;;;;;;;;;;4974833;28;20579;-64
2022/10/31 13:19:19;;;;;;;7.25;3.20;;;;;;;;;;4983514;28;20270;-64
2022/10/31 13:21:56;;;;;;;7.43;3.30;;;;;;;;;;4991616;28;20243;-63
2022/10/31 13:24:29;;;;;;;9.10;3.40;;;;;;;;;;5004156;28;20575;-63
2022/10/31 13:26:59;;;;;;;9.85;3.00;;;;;;;;;;4984663;28;20208;-64
2022/10/31 13:29:52;;;;;;;6.40;3.33;;;;;;;;;;4979568;28;20315;-64
2022/10/31 13:32:20;;;;;;;7.82;3.38;;;;;;;;;;4981864;28;20347;-64
2022/10/31 13:34:50;;;;;;;9.32;3.00;;;;;;;;;;4975414;28;20206;-64
2022/10/31 13:37:42;;;;;;;6.80;3.13;;;;;;;;;;4982261;28;20343;-64
2022/10/31 13:40:28;;;;;;;12.15;3.58;;;;;;;;;;4999926;28;20309;-64
2022/10/31 13:42:58;;;;;;;9.75;3.22;;;;;;;;;;4986567;28;20203;-63
2022/10/31 13:45:29;;;;;;;7.63;2.80;;;;;;;;;;4976522;28;20230;-64
2022/10/31 13:47:56;;;;;;;10.80;3.45;;;;;;;;;;4989247;28;20290;-64
2022/10/31 13:50:26;;;;;;;8.00;3.08;;;;;;;;;;4989056;28;20231;-63
2022/10/31 13:53:04;;;;;;;8.85;3.38;;;;;;;;;;4987586;28;20614;-63
2022/10/31 13:55:35;;;;;;;14.10;3.53;;;;;;;;;;4985446;28;20211;-64
2022/10/31 13:58:20;;;;;;;8.07;3.45;;;;;;;;;;4988905;28;20261;-64
2022/10/31 14:00:58;;;;;;;7.65;3.00;;;;;;;;;;4983737;28;21249;-63
2022/10/31 14:03:25;;;;;;;6.53;2.97;;;;;;;;;;4988363;28;20211;-63
2022/10/31 14:06:13;;;;;;;8.27;2.90;;;;;;;;;;4988934;28;20669;-63
2022/10/31 14:08:48;;;;;;;12.23;3.30;;;;;;;;;;4979157;28;20216;-64
2022/10/31 14:11:23;;;;;;;9.40;3.28;;;;;;;;;;4987868;28;20281;-64
2022/10/31 14:13:51;;;;;;;10.60;3.15;;;;;;;;;;4988382;28;20640;-64
2022/10/31 14:16:27;;;;;;;7.30;3.13;;;;;;;;;;4981589;28;20306;-63
2022/10/31 14:19:03;;;;;;;8.00;2.78;;;;;;;;;;4981576;28;20286;-64
2022/10/31 14:21:37;;;;;;;8.80;3.40;;;;;;;;;;4986348;28;20218;-64
2022/10/31 14:24:14;;;;;;;6.85;3.13;;;;;;;;;;5001961;28;20263;-63
2022/10/31 14:26:51;;;;;;;10.40;3.17;;;;;;;;;;4982128;28;20231;-62
2022/10/31 14:29:19;;;;;;;9.27;2.90;;;;;;;;;;4981024;28;20278;-63
2022/10/31 14:31:53;;;;;;;8.50;3.05;;;;;;;;;;4982508;28;20674;-62
2022/10/31 14:34:24;;;;;;;6.53;2.47;;;;;;;;;;4994968;28;20204;-64
2022/10/31 14:36:55;;;;;;;7.78;3.13;;;;;;;;;;4986014;28;20215;-65
2022/10/31 14:39:26;;;;;;;7.30;3.05;;;;;;;;;;4988967;28;20270;-63
2022/10/31 14:42:12;;;;;;;6.43;3.20;;;;;;;;;;4985416;28;20200;-63
2022/10/31 14:44:45;;;;;;;7.95;3.80;;;;;;;;;;4985729;28;20291;-64
2022/10/31 14:47:20;;;;;;;5.82;3.03;;;;;;;;;;4987681;28;20235;-64
2022/10/31 14:50:03;;;;;;;5.93;2.95;;;;;;;;;;4979662;28;20767;-63
2022/10/31 14:52:31;;;;;;;9.85;3.58;;;;;;;;;;4983194;28;20304;-63
2022/10/31 14:55:00;;;;;;;6.88;3.45;;;;;;;;;;4982325;28;20266;-64
2022/10/31 14:57:29;;;;;;;5.97;3.08;;;;;;;;;;4990350;28;20674;-63
2022/10/31 14:59:59;;;;;;;7.45;3.40;;;;;;;;;;4986722;28;20307;-63
2022/10/31 15:02:53;;;;;;;8.13;3.67;;;;;;;;;;5004966;28;20214;-64
2022/10/31 15:05:21;;;;;;;7.25;3.30;;;;;;;;;;4982227;28;20338;-64